Time,TemperatureF,DewpointF,PressureIn,WindDirection,WindDirectionDegrees,WindSpeedMPH,WindSpeedGustMPH,Humidity,HourlyPrecipIn,Conditions,Clouds,dailyrainin,SoftwareType,DateUTC
2013-11-16 00:01:00,64.0,51.0,29.63,ESE,108,5.0,11.0,64,0.00,,,0.00,weatherlink.com 1.10,2013-11-16 07:01:00,
2013-11-16 00:16:00,64.0,51.0,29.63,WSW,238,6.0,15.0,63,0.00,,,0.00,weatherlink.com 1.10,2013-11-16 07:16:00,
2013-11-16 00:31:00,64.0,51.0,29.63,SW,224,8.0,11.0,63,0.00,,,0.00,weatherlink.com 1.10,2013-11-16 07:31:00,
2013-11-16 00:46:00,63.5,51.0,29.63,SW,236,2.0,11.0,64,0.00,,,0.00,weatherlink.com 1.10,2013-11-16 07:46:00,
2013-11-16 01:01:00,63.0,50.0,29.63,SSE,150,7.0,13.0,63,0.00,,,0.00,weatherlink.com 1.10,2013-11-16 08:01:00,
2013-11-16 01:16:00,63.3,50.0,29.63,WSW,245,4.0,10.0,62,0.00,,,0.00,weatherlink.com 1.10,2013-11-16 08:16:00,
2013-11-16 01:31:00,63.2,51.0,29.63,SW,236,9.0,15.0,64,0.00,,,0.00,weatherlink.com 1.10,2013-11-16 08:31:00,
2013-11-16 01:46:00,62.6,51.0,29.63,SW,232,8.0,13.0,67,0.00,,,0.00,weatherlink.com 1.10,2013-11-16 08:46:00,
2013-11-16 02:01:00,62.3,51.0,29.62,WNW,285,6.0,13.0,67,0.00,,,0.00,weatherlink.com 1.10,2013-11-16 09:01:00,
2013-11-16 02:16:00,62.2,51.0,29.62,SW,236,7.0,15.0,66,0.00,,,0.00,weatherlink.com 1.10,2013-11-16 09:16:00,
2013-11-16 02:31:00,62.2,50.0,29.63,SW,224,7.0,19.0,65,0.00,,,0.00,weatherlink.com 1.10,2013-11-16 09:31:00,
2013-11-16 02:47:00,61.8,51.0,29.63,WNW,283,7.0,18.0,67,0.00,,,0.00,weatherlink.com 1.10,2013-11-16 09:47:00,
2013-11-16 03:02:00,61.5,50.0,29.64,West,271,4.0,20.0,67,0.00,,,0.00,weatherlink.com 1.10,2013-11-16 10:02:00,
2013-11-16 03:17:00,61.4,50.0,29.64,SSE,147,6.0,19.0,66,0.00,,,0.00,weatherlink.com 1.10,2013-11-16 10:17:00,
2013-11-16 03:32:00,60.9,50.0,29.64,SW,215,8.0,17.0,68,0.00,,,0.00,weatherlink.com 1.10,2013-11-16 10:32:00,
2013-11-16 03:47:00,60.6,50.0,29.64,WSW,257,8.0,14.0,67,0.00,,,0.00,weatherlink.com 1.10,2013-11-16 10:47:00,
2013-11-16 04:02:00,60.1,49.0,29.65,SW,232,4.0,10.0,68,0.00,,,0.00,weatherlink.com 1.10,2013-11-16 11:02:00,
2013-11-16 04:17:00,60.0,50.0,29.65,West,279,4.0,12.0,69,0.00,,,0.00,weatherlink.com 1.10,2013-11-16 11:17:00,
2013-11-16 04:32:00,59.9,49.0,29.65,SW,225,10.0,13.0,68,0.00,,,0.00,weatherlink.com 1.10,2013-11-16 11:32:00,
2013-11-16 04:47:00,59.8,49.0,29.65,West,281,3.0,10.0,67,0.00,,,0.00,weatherlink.com 1.10,2013-11-16 11:47:00,
2013-11-16 05:02:00,59.5,48.0,29.66,South,190,3.0,9.0,67,0.00,,,0.00,weatherlink.com 1.10,2013-11-16 12:02:00,
2013-11-16 05:17:00,59.1,48.0,29.66,SW,215,0.0,3.0,68,0.00,,,0.00,weatherlink.com 1.10,2013-11-16 12:17:00,
2013-11-16 05:32:00,58.4,48.0,29.66,SE,126,1.0,4.0,69,0.00,,,0.00,weatherlink.com 1.10,2013-11-16 12:32:00,
2013-11-16 05:47:00,57.5,48.0,29.67,WSW,239,2.0,2.0,70,0.00,,,0.00,weatherlink.com 1.10,2013-11-16 12:47:00,
2013-11-16 06:02:00,57.1,48.0,29.67,WSW,242,1.0,2.0,71,0.00,,,0.00,weatherlink.com 1.10,2013-11-16 13:02:00,
2013-11-16 06:17:00,56.9,47.0,29.68,South,190,2.0,4.0,70,0.00,,,0.00,weatherlink.com 1.10,2013-11-16 13:17:00,
2013-11-16 06:32:00,58.0,47.0,29.68,SW,233,2.0,8.0,66,0.00,,,0.00,weatherlink.com 1.10,2013-11-16 13:32:00,
2013-11-16 06:47:00,58.3,47.0,29.69,SSE,168,3.0,9.0,66,0.00,,,0.00,weatherlink.com 1.10,2013-11-16 13:47:00,
2013-11-16 07:02:00,58.0,47.0,29.70,South,188,2.0,5.0,66,0.00,,,0.00,weatherlink.com 1.10,2013-11-16 14:02:00,
2013-11-16 07:17:00,58.2,47.0,29.71,SSW,205,4.0,8.0,66,0.00,,,0.00,weatherlink.com 1.10,2013-11-16 14:17:00,
2013-11-16 07:32:00,59.0,47.0,29.71,SW,214,4.0,9.0,65,0.00,,,0.00,weatherlink.com 1.10,2013-11-16 14:32:00,
2013-11-16 07:47:00,59.5,47.0,29.71,West,267,8.0,13.0,63,0.00,,,0.00,weatherlink.com 1.10,2013-11-16 14:47:00,
2013-11-16 08:02:00,60.1,47.0,29.72,SSW,203,5.0,11.0,62,0.00,,,0.00,weatherlink.com 1.10,2013-11-16 15:02:00,
2013-11-16 08:17:00,60.8,47.0,29.73,SSW,204,4.0,12.0,60,0.00,,,0.00,weatherlink.com 1.10,2013-11-16 15:17:00,
2013-11-16 08:32:00,61.6,46.0,29.74,SW,226,7.0,15.0,58,0.00,,,0.00,weatherlink.com 1.10,2013-11-16 15:32:00,
2013-11-16 08:47:00,62.2,47.0,29.74,South,186,3.0,13.0,57,0.00,,,0.00,weatherlink.com 1.10,2013-11-16 15:47:00,
2013-11-16 09:02:00,62.9,46.0,29.74,South,186,3.0,11.0,55,0.00,,,0.00,weatherlink.com 1.10,2013-11-16 16:02:00,
2013-11-16 09:17:00,63.9,46.0,29.74,SSW,198,2.0,11.0,53,0.00,,,0.00,weatherlink.com 1.10,2013-11-16 16:17:00,
2013-11-16 09:32:00,64.5,46.0,29.74,WSW,250,4.0,7.0,51,0.00,,,0.00,weatherlink.com 1.10,2013-11-16 16:32:00,
2013-11-16 09:48:00,64.8,45.0,29.74,West,269,6.0,9.0,49,0.00,,,0.00,weatherlink.com 1.10,2013-11-16 16:48:00,
2013-11-16 10:18:00,65.9,44.0,29.74,WSW,240,6.0,10.0,45,0.00,,,0.00,weatherlink.com 1.10,2013-11-16 17:18:00,
2013-11-16 10:33:00,66.6,45.0,29.74,SSW,204,0.0,10.0,46,0.00,,,0.00,weatherlink.com 1.10,2013-11-16 17:33:00,
2013-11-16 10:48:00,67.2,46.0,29.75,SW,236,7.0,11.0,47,0.00,,,0.00,weatherlink.com 1.10,2013-11-16 17:48:00,
2013-11-16 11:03:00,68.0,44.0,29.75,West,259,6.0,9.0,42,0.00,,,0.00,weatherlink.com 1.10,2013-11-16 18:03:00,
2013-11-16 11:18:00,68.6,43.0,29.74,West,280,3.0,12.0,39,0.00,,,0.00,weatherlink.com 1.10,2013-11-16 18:18:00,
2013-11-16 11:33:00,68.8,43.0,29.74,WNW,300,2.0,13.0,39,0.00,,,0.00,weatherlink.com 1.10,2013-11-16 18:33:00,
2013-11-16 11:48:00,69.9,42.0,29.73,SW,225,2.0,13.0,37,0.00,,,0.00,weatherlink.com 1.10,2013-11-16 18:48:00,
2013-11-16 12:03:00,69.9,42.0,29.73,West,266,3.0,13.0,37,0.00,,,0.00,weatherlink.com 1.10,2013-11-16 19:03:00,
2013-11-16 12:18:00,70.2,43.0,29.72,SW,225,9.0,12.0,37,0.00,,,0.00,weatherlink.com 1.10,2013-11-16 19:18:00,
2013-11-16 12:33:00,70.5,44.0,29.72,SW,214,5.0,12.0,38,0.00,,,0.00,weatherlink.com 1.10,2013-11-16 19:33:00,
2013-11-16 12:48:00,70.6,42.0,29.71,WSW,253,8.0,19.0,36,0.00,,,0.00,weatherlink.com 1.10,2013-11-16 19:48:00,
2013-11-16 13:03:00,71.5,42.0,29.70,WNW,296,2.0,13.0,34,0.00,,,0.00,weatherlink.com 1.10,2013-11-16 20:03:00,
2013-11-16 13:18:00,72.1,42.0,29.69,WSW,243,8.0,12.0,34,0.00,,,0.00,weatherlink.com 1.10,2013-11-16 20:18:00,
2013-11-16 13:33:00,71.9,38.0,29.69,SW,229,3.0,19.0,29,0.00,,,0.00,weatherlink.com 1.10,2013-11-16 20:33:00,
2013-11-16 13:48:00,72.3,33.0,29.69,SSW,205,6.0,18.0,24,0.00,,,0.00,weatherlink.com 1.10,2013-11-16 20:48:00,
2013-11-16 14:03:00,72.8,32.0,29.68,SW,231,9.0,15.0,22,0.00,,,0.00,weatherlink.com 1.10,2013-11-16 21:03:00,
2013-11-16 14:18:00,73.0,35.0,29.68,West,277,8.0,15.0,25,0.00,,,0.00,weatherlink.com 1.10,2013-11-16 21:18:00,
2013-11-16 14:33:00,72.7,36.0,29.68,West,262,1.0,16.0,26,0.00,,,0.00,weatherlink.com 1.10,2013-11-16 21:33:00,
2013-11-16 14:48:00,73.3,35.0,29.68,West,276,2.0,15.0,25,0.00,,,0.00,weatherlink.com 1.10,2013-11-16 21:48:00,
2013-11-16 15:03:00,73.4,35.0,29.68,SSW,207,5.0,15.0,25,0.00,,,0.00,weatherlink.com 1.10,2013-11-16 22:03:00,
2013-11-16 15:18:00,73.7,35.0,29.67,WSW,256,13.0,17.0,24,0.00,,,0.00,weatherlink.com 1.10,2013-11-16 22:18:00,
2013-11-16 15:33:00,73.1,34.0,29.68,SW,222,7.0,14.0,24,0.00,,,0.00,weatherlink.com 1.10,2013-11-16 22:33:00,
2013-11-16 15:48:00,73.4,34.0,29.68,West,267,6.0,11.0,24,0.00,,,0.00,weatherlink.com 1.10,2013-11-16 22:48:00,
2013-11-16 16:03:00,73.4,34.0,29.67,SSE,160,6.0,15.0,24,0.00,,,0.00,weatherlink.com 1.10,2013-11-16 23:03:00,
2013-11-16 16:18:00,72.8,34.0,29.68,South,183,3.0,13.0,24,0.00,,,0.00,weatherlink.com 1.10,2013-11-16 23:18:00,
2013-11-16 16:33:00,72.1,35.0,29.68,WNW,297,10.0,16.0,26,0.00,,,0.00,weatherlink.com 1.10,2013-11-16 23:33:00,
2013-11-16 16:48:00,71.4,37.0,29.68,SW,221,10.0,16.0,28,0.00,,,0.00,weatherlink.com 1.10,2013-11-16 23:48:00,
2013-11-16 17:03:00,70.2,39.0,29.68,SSW,200,8.0,13.0,32,0.00,,,0.00,weatherlink.com 1.10,2013-11-17 00:03:00,
2013-11-16 17:18:00,69.4,40.0,29.68,SW,226,3.0,16.0,34,0.00,,,0.00,weatherlink.com 1.10,2013-11-17 00:18:00,
2013-11-16 17:33:00,68.6,42.0,29.69,SW,228,4.0,11.0,38,0.00,,,0.00,weatherlink.com 1.10,2013-11-17 00:33:00,
2013-11-16 17:48:00,67.9,42.0,29.70,West,271,4.0,9.0,39,0.00,,,0.00,weatherlink.com 1.10,2013-11-17 00:48:00,
2013-11-16 18:03:00,67.4,43.0,29.70,West,266,2.0,6.0,41,0.00,,,0.00,weatherlink.com 1.10,2013-11-17 01:03:00,
2013-11-16 18:18:00,66.8,43.0,29.71,SW,221,6.0,8.0,43,0.00,,,0.00,weatherlink.com 1.10,2013-11-17 01:18:00,
2013-11-16 18:33:00,66.2,44.0,29.72,WNW,283,2.0,6.0,45,0.00,,,0.00,weatherlink.com 1.10,2013-11-17 01:33:00,
2013-11-16 18:48:00,66.4,45.0,29.73,WSW,240,6.0,11.0,47,0.00,,,0.00,weatherlink.com 1.10,2013-11-17 01:48:00,
2013-11-16 19:03:00,66.2,45.0,29.74,SE,146,2.0,6.0,47,0.00,,,0.00,weatherlink.com 1.10,2013-11-17 02:03:00,
2013-11-16 19:18:00,66.0,46.0,29.75,WSW,239,3.0,7.0,48,0.00,,,0.00,weatherlink.com 1.10,2013-11-17 02:18:00,
2013-11-16 19:33:00,66.0,45.0,29.75,SW,225,2.0,7.0,47,0.00,,,0.00,weatherlink.com 1.10,2013-11-17 02:33:00,
2013-11-16 19:48:00,65.2,44.0,29.76,WNW,300,1.0,8.0,47,0.00,,,0.00,weatherlink.com 1.10,2013-11-17 02:48:00,
2013-11-16 20:03:00,64.5,45.0,29.77,NW,314,7.0,8.0,49,0.00,,,0.00,weatherlink.com 1.10,2013-11-17 03:03:00,
2013-11-16 20:18:00,63.9,44.0,29.77,West,269,1.0,5.0,49,0.00,,,0.00,weatherlink.com 1.10,2013-11-17 03:18:00,
2013-11-16 20:33:00,63.5,44.0,29.78,West,280,1.0,6.0,50,0.00,,,0.00,weatherlink.com 1.10,2013-11-17 03:33:00,
2013-11-16 20:48:00,63.0,44.0,29.79,West,268,0.0,6.0,51,0.00,,,0.00,weatherlink.com 1.10,2013-11-17 03:48:00,
2013-11-16 21:03:00,62.2,44.0,29.79,WSW,250,0.0,2.0,51,0.00,,,0.00,weatherlink.com 1.10,2013-11-17 04:03:00,
2013-11-16 21:18:00,61.6,45.0,29.79,WNW,297,1.0,6.0,54,0.00,,,0.00,weatherlink.com 1.10,2013-11-17 04:18:00,
2013-11-16 21:34:00,61.3,45.0,29.80,WNW,287,3.0,4.0,55,0.00,,,0.00,weatherlink.com 1.10,2013-11-17 04:34:00,
2013-11-16 21:49:00,61.2,46.0,29.80,WNW,302,2.0,6.0,57,0.00,,,0.00,weatherlink.com 1.10,2013-11-17 04:49:00,
2013-11-16 22:04:00,60.8,46.0,29.80,West,273,3.0,4.0,58,0.00,,,0.00,weatherlink.com 1.10,2013-11-17 05:04:00,
2013-11-16 22:19:00,61.1,46.0,29.81,WNW,290,8.0,9.0,59,0.00,,,0.00,weatherlink.com 1.10,2013-11-17 05:19:00,
2013-11-16 22:34:00,61.0,47.0,29.81,WSW,243,2.0,7.0,60,0.00,,,0.00,weatherlink.com 1.10,2013-11-17 05:34:00,
2013-11-16 22:49:00,60.8,47.0,29.81,West,272,1.0,6.0,61,0.00,,,0.00,weatherlink.com 1.10,2013-11-17 05:49:00,
2013-11-16 23:04:00,60.4,48.0,29.82,NW,319,4.0,11.0,63,0.00,,,0.00,weatherlink.com 1.10,2013-11-17 06:04:00,
2013-11-16 23:19:00,60.1,48.0,29.82,SW,221,2.0,7.0,64,0.00,,,0.00,weatherlink.com 1.10,2013-11-17 06:19:00,
2013-11-16 23:34:00,59.6,48.0,29.82,WNW,288,3.0,6.0,66,0.00,,,0.00,weatherlink.com 1.10,2013-11-17 06:34:00,
2013-11-16 23:49:00,59.2,48.0,29.83,West,270,4.0,7.0,67,0.00,,,0.00,weatherlink.com 1.10,2013-11-17 06:49:00,